Time;durP1;ratioP1;P1;durP2;ratioP2;P2;SDS_P1;SDS_P2;PMS_P1;PMS_P2;Temp;Humidity;BMP_temperature;BMP_pressure;BME280_temperature;BME280_humidity;BME280_pressure;Samples;Min_cycle;Max_cycle;Signal;HPM_P1;HPM_P2
2023/05/15 00:01:12;;;;;;;30.77;16.60;;;;;;;-143.48;96.53;118439.88;5053736;28;20039;-67
2023/05/15 00:03:37;;;;;;;31.05;16.45;;;;;;;-143.48;96.42;118439.88;5053757;28;20380;-66
2023/05/15 00:06:03;;;;;;;28.90;16.38;;;;;;;-143.48;96.90;118439.88;5053598;28;20043;-66
2023/05/15 00:08:28;;;;;;;26.67;15.65;;;;;;;-143.48;96.70;118439.88;5053606;28;20025;-67
2023/05/15 00:10:53;;;;;;;28.60;15.70;;;;;;;-143.48;96.48;118439.88;5053479;28;20028;-67
2023/05/15 00:13:18;;;;;;;29.05;15.55;;;;;;;-143.48;97.12;118439.88;5053396;28;20078;-68
2023/05/15 00:15:44;;;;;;;33.67;16.33;;;;;;;-143.48;97.81;118439.88;5053450;28;20064;-67
2023/05/15 00:18:09;;;;;;;28.75;15.85;;;;;;;-143.48;97.86;118439.88;5053457;28;20391;-67
2023/05/15 00:20:34;;;;;;;30.38;16.60;;;;;;;-143.48;97.88;118439.88;5053289;28;20044;-67
2023/05/15 00:23:00;;;;;;;28.63;15.43;;;;;;;-143.48;97.30;118439.88;5053324;28;20096;-67
2023/05/15 00:25:25;;;;;;;30.17;15.25;;;;;;;-143.48;97.60;118439.88;5053436;28;20019;-67
2023/05/15 00:27:50;;;;;;;27.98;16.30;;;;;;;-143.48;97.78;118439.88;5053235;28;20534;-67
2023/05/15 00:30:15;;;;;;;30.58;15.40;;;;;;;-143.48;98.60;118439.88;5035337;28;20025;-67
2023/05/15 00:32:41;;;;;;;29.92;16.25;;;;;;;-143.48;98.45;118439.88;5053237;28;20527;-67
2023/05/15 00:35:07;;;;;;;30.38;16.17;;;;;;;-143.48;98.94;118439.88;5053152;28;20060;-67
2023/05/15 00:37:32;;;;;;;29.38;15.55;;;;;;;-143.48;98.46;118439.88;5053001;28;20082;-67
2023/05/15 00:39:57;;;;;;;29.52;15.30;;;;;;;-143.48;97.73;118439.88;5053196;28;20047;-67
2023/05/15 00:42:23;;;;;;;30.10;16.27;;;;;;;-143.48;97.99;118439.88;5053137;28;20064;-67
2023/05/15 00:44:51;;;;;;;33.42;16.75;;;;;;;-143.48;98.12;118439.88;5053664;28;20021;-68
2023/05/15 00:47:18;;;;;;;29.02;16.50;;;;;;;-143.48;98.40;118439.88;5052885;28;20524;-67
2023/05/15 00:49:44;;;;;;;32.00;16.27;;;;;;;-143.48;98.76;118439.88;5035099;28;20124;-66
2023/05/15 00:52:10;;;;;;;31.13;16.83;;;;;;;-143.48;98.17;118439.88;5035041;28;20071;-67
2023/05/15 00:54:35;;;;;;;34.38;15.65;;;;;;;-143.48;98.53;118439.88;5052889;28;20098;-66
2023/05/15 00:57:04;;;;;;;34.47;16.67;;;;;;;-143.48;98.55;118439.88;5052773;28;20041;-67
2023/05/15 00:59:30;;;;;;;33.33;15.70;;;;;;;-143.48;99.07;118439.88;5052664;28;20021;-66
2023/05/15 01:01:56;;;;;;;29.88;16.25;;;;;;;-143.48;99.03;118439.88;5052886;28;20416;-68
2023/05/15 01:04:21;;;;;;;30.33;17.02;;;;;;;-143.48;99.30;118439.88;5053251;28;20017;-69
2023/05/15 01:06:47;;;;;;;30.45;16.35;;;;;;;-143.48;98.94;118439.88;5057009;28;20028;-66
2023/05/15 01:09:14;;;;;;;30.65;17.10;;;;;;;-143.48;98.43;118439.88;5056862;28;20028;-67
2023/05/15 01:11:41;;;;;;;29.67;16.23;;;;;;;-143.48;99.50;118439.88;5056808;28;20025;-67
2023/05/15 01:14:07;;;;;;;31.73;15.88;;;;;;;-143.48;98.87;118439.88;5038837;28;20029;-67
2023/05/15 01:16:34;;;;;;;29.73;16.75;;;;;;;-143.48;98.87;118439.88;5056831;28;20025;-67
2023/05/15 01:19:00;;;;;;;34.83;16.52;;;;;;;-143.48;99.38;118439.88;5056731;28;20035;-67
2023/05/15 01:21:35;;;;;;;29.70;16.67;;;;;;;-143.48;99.44;118439.88;5056591;28;20028;-67
2023/05/15 01:24:25;;;;;;;32.63;16.52;;;;;;;-143.48;99.43;118439.88;5056720;28;20075;-67
2023/05/15 01:27:09;;;;;;;32.72;16.77;;;;;;;-143.48;100.00;118439.88;5056572;28;20020;-67
2023/05/15 01:29:55;;;;;;;40.60;17.63;;;;;;;-143.48;100.00;118439.88;5056583;28;20106;-67
2023/05/15 01:32:42;;;;;;;37.28;17.27;;;;;;;-143.48;100.00;118439.88;5056471;28;20103;-67
2023/05/15 01:35:16;;;;;;;35.70;17.98;;;;;;;-143.48;100.00;118439.88;5056298;28;20028;-68
2023/05/15 01:37:45;;;;;;;32.45;18.20;;;;;;;-143.48;100.00;118439.88;5056361;28;20103;-67
2023/05/15 01:40:13;;;;;;;34.63;17.63;;;;;;;-143.48;100.00;118439.88;5056493;28;20024;-67
2023/05/15 01:42:46;;;;;;;32.60;17.50;;;;;;;-143.48;99.96;118439.88;5056484;28;20110;-67
2023/05/15 01:45:12;;;;;;;35.28;18.65;;;;;;;-143.48;99.52;118439.88;5056291;28;20106;-68
2023/05/15 01:47:41;;;;;;;34.97;18.80;;;;;;;-143.48;99.80;118439.88;5056063;28;20072;-67
2023/05/15 01:50:10;;;;;;;32.83;19.02;;;;;;;-143.48;99.26;118439.88;5056015;28;20393;-66
2023/05/15 01:52:39;;;;;;;40.47;19.63;;;;;;;-143.48;99.48;118439.88;5056095;28;20025;-67
2023/05/15 01:55:07;;;;;;;37.38;20.20;;;;;;;-143.48;99.32;118439.88;5055919;28;20021;-67
2023/05/15 01:57:34;;;;;;;36.70;20.08;;;;;;;-143.48;99.87;118439.88;5056038;28;20131;-67
2023/05/15 02:00:00;;;;;;;41.10;20.50;;;;;;;-143.48;99.90;118439.88;5056013;28;20025;-67
2023/05/15 02:02:27;;;;;;;38.78;21.00;;;;;;;-143.48;100.00;118439.88;5055850;28;20032;-66
2023/05/15 02:04:54;;;;;;;40.17;20.67;;;;;;;-143.48;100.00;118439.88;5055973;28;20164;-67
2023/05/15 02:07:20;;;;;;;40.17;20.60;;;;;;;-143.48;100.00;118439.88;5055815;28;20024;-66
2023/05/15 02:09:46;;;;;;;38.03;21.55;;;;;;;-143.48;100.00;118439.88;5055869;28;20078;-67
2023/05/15 02:12:12;;;;;;;44.92;21.83;;;;;;;-143.48;100.00;118439.88;5055757;28;20029;-66
2023/05/15 02:14:39;;;;;;;43.10;22.63;;;;;;;-143.48;100.00;118439.88;5055664;28;20108;-66
2023/05/15 02:17:05;;;;;;;42.83;22.52;;;;;;;-143.48;100.00;118439.88;5054915;28;20033;-67
2023/05/15 02:19:30;;;;;;;41.03;22.92;;;;;;;-143.48;100.00;118439.88;5055558;28;20028;-67
2023/05/15 02:21:56;;;;;;;44.80;24.05;;;;;;;-143.48;100.00;118439.88;5055552;28;20032;-66
2023/05/15 02:24:21;;;;;;;41.50;22.15;;;;;;;-143.48;100.00;118439.88;5055537;28;20085;-67
2023/05/15 02:27:00;;;;;;;41.17;22.45;;;;;;;-143.48;100.00;118439.88;5055386;28;20074;-67
2023/05/15 02:29:47;;;;;;;42.25;23.27;;;;;;;-143.48;100.00;118439.88;5055324;28;20021;-67
2023/05/15 02:32:21;;;;;;;37.90;22.45;;;;;;;-143.48;99.90;118439.88;5055389;28;20512;-68
2023/05/15 02:35:14;;;;;;;43.72;21.77;;;;;;;-143.48;99.90;118439.88;5055310;28;20082;-67
2023/05/15 02:37:42;;;;;;;44.20;23.40;;;;;;;-143.48;100.00;118439.88;5037424;28;20060;-67
2023/05/15 02:40:09;;;;;;;43.53;21.85;;;;;;;-143.48;99.82;118439.88;5055349;28;20031;-67
2023/05/15 02:42:35;;;;;;;42.75;22.85;;;;;;;-143.48;100.00;118439.88;5055357;28;20029;-67
2023/05/15 02:45:02;;;;;;;41.45;20.90;;;;;;;-143.48;100.00;118439.88;5055143;28;20108;-67
2023/05/15 02:47:29;;;;;;;38.90;21.73;;;;;;;-143.48;100.00;118439.88;5054786;28;20128;-67
2023/05/15 02:49:55;;;;;;;43.03;22.85;;;;;;;-143.48;100.00;118439.88;5054964;28;20025;-66
2023/05/15 02:52:23;;;;;;;41.75;23.23;;;;;;;-143.48;100.00;118439.88;5054979;28;20025;-66
2023/05/15 02:54:48;;;;;;;41.28;22.05;;;;;;;-143.48;100.00;118439.88;5055011;28;20064;-66
2023/05/15 02:57:13;;;;;;;42.15;21.77;;;;;;;-143.48;100.00;118439.88;5055206;28;20024;-67
2023/05/15 02:59:39;;;;;;;40.08;22.27;;;;;;;-143.48;100.00;118439.88;5054847;28;20503;-67
2023/05/15 03:02:04;;;;;;;42.85;22.75;;;;;;;-143.48;99.82;118439.88;5036913;28;20292;-67
2023/05/15 03:04:30;;;;;;;39.38;21.70;;;;;;;-143.48;99.75;118439.88;5054780;28;20025;-67
2023/05/15 03:06:55;;;;;;;40.28;21.75;;;;;;;-143.48;99.25;118439.88;5054692;28;20021;-67
2023/05/15 03:09:20;;;;;;;39.35;22.13;;;;;;;-143.48;100.00;118439.88;5037172;28;20068;-67
2023/05/15 03:11:46;;;;;;;41.00;23.02;;;;;;;-143.48;99.66;118439.88;5036734;28;20033;-67
2023/05/15 03:14:11;;;;;;;49.88;23.13;;;;;;;-143.48;100.00;118439.88;5054417;28;20033;-67
2023/05/15 03:16:37;;;;;;;42.72;21.67;;;;;;;-143.48;99.47;118439.88;5054646;28;20021;-68
2023/05/15 03:19:03;;;;;;;42.90;22.08;;;;;;;-143.48;100.00;118439.88;5054573;28;20522;-68
2023/05/15 03:21:28;;;;;;;40.95;22.88;;;;;;;-143.48;99.78;118439.88;5036746;28;20025;-67
2023/05/15 03:23:53;;;;;;;43.15;22.63;;;;;;;-143.48;99.64;118439.88;5054331;28;20028;-67
2023/05/15 03:26:19;;;;;;;41.50;22.95;;;;;;;-143.48;100.00;118439.88;5054442;28;20112;-67
2023/05/15 03:28:44;;;;;;;48.63;23.08;;;;;;;-143.48;99.42;118439.88;5053231;28;20035;-66
2023/05/15 03:31:10;;;;;;;49.47;25.15;;;;;;;-143.48;99.15;118439.88;5054389;28;20383;-66
2023/05/15 03:33:36;;;;;;;50.58;24.67;;;;;;;-143.48;99.78;118439.88;5036363;28;20025;-66
2023/05/15 03:36:02;;;;;;;48.78;24.38;;;;;;;-143.48;99.96;118439.88;5054130;28;20090;-66
2023/05/15 03:38:27;;;;;;;50.58;24.83;;;;;;;-143.48;99.86;118439.88;5054073;28;20029;-67
2023/05/15 03:40:52;;;;;;;47.15;24.77;;;;;;;-143.48;100.00;118439.88;5036130;28;20025;-66
2023/05/15 03:43:17;;;;;;;52.42;25.08;;;;;;;-143.48;100.00;118439.88;5053618;28;20020;-66
2023/05/15 03:45:43;;;;;;;43.38;22.85;;;;;;;-143.48;100.00;118439.88;5054013;28;20045;-66
2023/05/15 03:48:08;;;;;;;41.80;23.77;;;;;;;-143.48;100.00;118439.88;5053954;28;20048;-68
2023/05/15 03:50:44;;;;;;;47.42;23.73;;;;;;;-143.48;100.00;118439.88;5112275;27;20711;-27
2023/05/15 03:53:09;;;;;;;45.20;22.52;;;;;;;-143.48;99.60;118439.88;5109997;28;20032;-27
2023/05/15 03:55:35;;;;;;;43.80;24.00;;;;;;;-143.48;99.72;118439.88;5109158;28;20020;-27
2023/05/15 03:58:00;;;;;;;41.75;22.50;;;;;;;-143.48;99.40;118439.88;5109150;28;20550;-26
2023/05/15 04:00:26;;;;;;;45.03;24.05;;;;;;;-143.48;100.00;118439.88;5109072;28;20039;-27
2023/05/15 04:02:51;;;;;;;46.70;23.38;;;;;;;-143.48;99.37;118439.88;5109075;28;20108;-27
2023/05/15 04:05:18;;;;;;;41.72;23.35;;;;;;;-143.48;98.93;118439.88;5109279;28;20421;-28
2023/05/15 04:07:43;;;;;;;42.90;23.65;;;;;;;-143.48;99.25;118439.88;5109708;28;20034;-26
2023/05/15 04:10:09;;;;;;;41.45;23.17;;;;;;;-143.48;98.84;118439.88;5111383;28;20020;-27
2023/05/15 04:12:34;;;;;;;44.05;23.23;;;;;;;-143.48;98.89;118439.88;5111202;28;20035;-27
2023/05/15 04:18:11;;;;;;;43.83;23.33;;;;;;;-143.48;99.35;118439.88;5050761;28;20148;-67
2023/05/15 04:20:36;;;;;;;39.97;22.77;;;;;;;-143.48;99.12;118439.88;5043600;28;20083;-66
2023/05/15 04:23:03;;;;;;;42.05;23.63;;;;;;;-143.48;99.30;118439.88;5034420;28;20481;-68
2023/05/15 04:25:28;;;;;;;43.58;23.80;;;;;;;-143.48;98.94;118439.88;5034263;28;20021;-67
2023/05/15 04:27:54;;;;;;;41.83;22.75;;;;;;;-143.48;98.76;118439.88;5051723;28;20054;-67
2023/05/15 04:30:20;;;;;;;41.30;23.88;;;;;;;-143.48;99.70;118439.88;5051033;28;20071;-66
2023/05/15 04:32:45;;;;;;;45.55;23.45;;;;;;;-143.48;99.25;118439.88;5051685;28;20372;-66
2023/05/15 04:35:12;;;;;;;40.20;23.08;;;;;;;-143.48;98.58;118439.88;5051924;28;20025;-67
2023/05/15 04:37:39;;;;;;;41.50;23.25;;;;;;;-143.48;98.50;118439.88;5051972;28;20370;-66
2023/05/15 04:40:06;;;;;;;40.72;23.63;;;;;;;-143.48;98.35;118439.88;5052632;28;20099;-66
2023/05/15 04:42:32;;;;;;;39.22;22.83;;;;;;;-143.48;98.60;118439.88;5052800;28;20040;-67
2023/05/15 04:44:57;;;;;;;38.63;22.23;;;;;;;-143.48;98.28;118439.88;5034374;28;20017;-68
2023/05/15 04:47:23;;;;;;;39.42;21.10;;;;;;;-143.48;98.42;118439.88;5052226;28;20079;-66
2023/05/15 04:49:49;;;;;;;36.88;21.83;;;;;;;-143.48;98.15;118439.88;5051504;28;20053;-67
2023/05/15 04:52:14;;;;;;;30.67;19.90;;;;;;;-143.48;96.77;118439.88;5052131;28;20402;-67
2023/05/15 04:54:40;;;;;;;36.05;19.77;;;;;;;-143.48;96.80;118439.88;5050293;28;20064;-67
2023/05/15 04:57:06;;;;;;;33.00;20.27;;;;;;;-143.48;96.32;118439.88;5049971;28;20026;-67
2023/05/15 04:59:31;;;;;;;36.05;21.20;;;;;;;-143.48;95.85;118439.88;5031515;28;20021;-67
2023/05/15 05:01:57;;;;;;;32.53;20.33;;;;;;;-143.48;94.79;118439.88;5019206;28;20032;-68
2023/05/15 05:04:22;;;;;;;29.45;18.15;;;;;;;-143.48;94.91;118439.88;5016952;28;20021;-68
2023/05/15 05:06:47;;;;;;;32.08;19.77;;;;;;;-143.48;94.67;118439.88;5036094;28;20025;-68
2023/05/15 05:09:13;;;;;;;33.03;19.67;;;;;;;-143.48;94.65;118439.88;5035720;28;20025;-67
2023/05/15 05:11:42;;;;;;;29.17;19.35;;;;;;;-143.48;94.35;118439.88;5016998;28;20021;-67
2023/05/15 05:14:12;;;;;;;31.92;20.63;;;;;;;-143.48;93.96;118439.88;5017063;28;20418;-67
2023/05/15 05:16:37;;;;;;;33.95;20.17;;;;;;;-143.48;93.84;118439.88;5034613;28;20653;-69
2023/05/15 05:19:03;;;;;;;32.38;19.42;;;;;;;-143.48;93.18;118439.88;5016423;28;20026;-68
2023/05/15 05:21:29;;;;;;;27.75;19.00;;;;;;;-143.48;93.27;118439.88;5016489;28;20031;-68
2023/05/15 05:23:55;;;;;;;29.60;18.83;;;;;;;-143.48;92.58;118439.88;5035164;28;20033;-67
2023/05/15 05:26:20;;;;;;;29.52;18.20;;;;;;;-143.48;92.68;118439.88;5036320;28;20029;-67
2023/05/15 05:28:46;;;;;;;30.27;18.80;;;;;;;-143.48;92.55;118439.88;5035909;28;20021;-67
2023/05/15 05:31:11;;;;;;;27.40;19.60;;;;;;;-143.48;93.25;118439.88;5039959;28;20034;-68
2023/05/15 05:33:36;;;;;;;24.45;16.73;;;;;;;-143.48;91.64;118439.88;5021534;28;20025;-68
2023/05/15 05:36:02;;;;;;;25.92;18.42;;;;;;;-143.48;90.63;118439.88;5036220;28;20025;-67
2023/05/15 05:38:27;;;;;;;28.63;17.15;;;;;;;-143.48;90.93;118439.88;5036037;28;20021;-67
2023/05/15 05:40:52;;;;;;;31.13;17.45;;;;;;;-143.48;89.91;118439.88;5036124;28;20037;-67
2023/05/15 05:43:19;;;;;;;26.42;18.15;;;;;;;-143.48;89.42;118439.88;5035961;28;20472;-67
2023/05/15 05:45:45;;;;;;;28.48;18.38;;;;;;;-143.48;88.70;118439.88;5036036;28;20021;-66
2023/05/15 05:48:12;;;;;;;26.63;19.48;;;;;;;-143.48;87.94;118439.88;5017885;28;20166;-68
2023/05/15 05:50:37;;;;;;;30.05;19.45;;;;;;;-143.48;88.37;118439.88;5035666;28;20469;-67
2023/05/15 05:53:02;;;;;;;29.20;21.30;;;;;;;-143.48;88.07;118439.88;5035644;28;20060;-67
2023/05/15 05:55:28;;;;;;;28.05;19.85;;;;;;;-143.48;87.55;118439.88;5035144;28;20370;-68
2023/05/15 05:57:53;;;;;;;32.65;21.27;;;;;;;-143.48;86.13;118439.88;5038579;28;20044;-68
2023/05/15 06:00:19;;;;;;;28.17;18.20;;;;;;;-143.48;76.78;118439.88;5017005;28;20028;-67
2023/05/15 06:02:45;;;;;;;23.52;17.58;;;;;;;-143.48;67.00;118439.88;5035387;28;20287;-68
2023/05/15 06:05:10;;;;;;;22.83;17.33;;;;;;;-143.48;58.30;118439.88;5034991;28;20048;-67
2023/05/15 06:07:35;;;;;;;22.90;15.00;;;;;;;-143.48;58.48;118439.88;5035305;28;20107;-68
2023/05/15 06:10:01;;;;;;;19.92;13.60;;;;;;;-143.48;64.20;118439.88;5035369;28;20025;-67
2023/05/15 06:12:26;;;;;;;24.60;17.25;;;;;;;-143.48;70.63;118439.88;5034238;28;20030;-67
2023/05/15 06:14:52;;;;;;;27.15;17.70;;;;;;;-143.48;70.52;118439.88;5035182;28;20094;-67
2023/05/15 06:17:18;;;;;;;23.90;17.98;;;;;;;-143.48;74.30;118439.88;5001635;28;20050;-67
2023/05/15 06:19:43;;;;;;;22.92;17.92;;;;;;;-143.48;75.94;118439.88;4994376;28;20027;-68
2023/05/15 06:22:08;;;;;;;24.05;19.00;;;;;;;-143.48;76.28;118439.88;4994745;28;20058;-67
2023/05/15 06:24:34;;;;;;;27.60;19.25;;;;;;;-143.48;77.18;118439.88;4993933;28;20450;-67
2023/05/15 06:26:59;;;;;;;26.02;18.98;;;;;;;-143.48;76.96;118439.88;4995081;28;20068;-67
2023/05/15 06:29:25;;;;;;;26.05;19.25;;;;;;;-143.48;78.44;118439.88;4993718;28;20433;-67
2023/05/15 06:31:50;;;;;;;31.02;19.63;;;;;;;-143.48;77.63;118439.88;4994751;28;20042;-67
2023/05/15 06:34:16;;;;;;;33.58;20.98;;;;;;;-143.48;78.45;118439.88;4994854;28;20033;-67
2023/05/15 06:36:41;;;;;;;29.38;19.95;;;;;;;-143.48;78.49;118439.88;4994838;28;20089;-67
2023/05/15 06:39:09;;;;;;;29.30;19.77;;;;;;;-143.48;78.25;118439.88;4993311;28;20046;-68
2023/05/15 06:41:35;;;;;;;29.95;19.55;;;;;;;-143.48;75.20;118439.88;4997571;28;20030;-68
2023/05/15 06:44:00;;;;;;;29.13;19.83;;;;;;;-143.48;77.53;118439.88;4997244;28;20149;-66
2023/05/15 06:46:25;;;;;;;27.27;20.13;;;;;;;-143.48;77.51;118439.88;4998357;28;20037;-67
2023/05/15 06:48:51;;;;;;;32.80;20.73;;;;;;;-143.48;74.03;118439.88;4996513;28;20092;-67
2023/05/15 06:51:16;;;;;;;26.98;20.20;;;;;;;-143.48;73.91;118439.88;4996646;28;20033;-67
2023/05/15 06:53:41;;;;;;;30.48;20.30;;;;;;;-143.48;74.56;118439.88;4998049;28;20028;-67
2023/05/15 06:56:07;;;;;;;27.90;19.85;;;;;;;-143.48;74.77;118439.88;4996785;28;20084;-67
2023/05/15 06:58:32;;;;;;;25.52;18.98;;;;;;;-143.48;71.90;118439.88;4996588;28;20033;-67
2023/05/15 07:00:57;;;;;;;25.08;19.33;;;;;;;-143.48;70.73;118439.88;4995132;28;20053;-66
2023/05/15 07:03:23;;;;;;;25.55;17.80;;;;;;;-143.48;69.59;118439.88;4997430;28;20018;-68
2023/05/15 07:05:48;;;;;;;24.63;17.60;;;;;;;-143.48;66.89;118439.88;4995719;28;20454;-70
2023/05/15 07:08:13;;;;;;;24.55;17.25;;;;;;;-143.48;67.44;118439.88;4996170;28;20625;-68
2023/05/15 07:10:39;;;;;;;22.08;16.38;;;;;;;-143.48;67.95;118439.88;4995516;28;20018;-68
2023/05/15 07:13:04;;;;;;;23.63;16.70;;;;;;;-143.48;68.00;118439.88;4998851;28;20030;-68
2023/05/15 07:15:29;;;;;;;26.60;16.60;;;;;;;-143.48;67.86;118439.88;4997265;28;20057;-67
2023/05/15 07:17:55;;;;;;;20.25;15.95;;;;;;;-143.48;65.86;118439.88;5031105;28;20049;-67
2023/05/15 07:20:20;;;;;;;21.73;16.50;;;;;;;-143.48;64.04;118439.88;5035181;28;20049;-67
2023/05/15 07:22:45;;;;;;;22.63;16.45;;;;;;;-143.48;65.26;118439.88;5017824;28;20029;-66
2023/05/15 07:25:11;;;;;;;27.38;17.15;;;;;;;-143.48;66.39;118439.88;5035452;28;20024;-67
2023/05/15 07:27:36;;;;;;;26.50;16.83;;;;;;;-143.48;65.37;118439.88;5035140;28;20032;-67
2023/05/15 07:30:03;;;;;;;24.23;16.65;;;;;;;-143.48;65.74;118439.88;5035275;28;20139;-67
2023/05/15 07:32:29;;;;;;;24.67;16.80;;;;;;;-143.48;65.43;118439.88;5034797;28;20089;-67
2023/05/15 07:34:55;;;;;;;21.95;16.70;;;;;;;-143.48;64.66;118439.88;5035357;28;20026;-67
2023/05/15 07:37:20;;;;;;;25.92;17.67;;;;;;;-143.48;66.78;118439.88;5035224;28;20029;-67
2023/05/15 07:39:45;;;;;;;25.00;16.90;;;;;;;-143.48;66.76;118439.88;5017623;28;20021;-67
2023/05/15 07:42:11;;;;;;;22.33;16.40;;;;;;;-143.48;65.48;118439.88;5035523;28;20029;-66
2023/05/15 07:44:36;;;;;;;23.13;16.08;;;;;;;-143.48;64.73;118439.88;5017502;28;20021;-67
2023/05/15 07:47:02;;;;;;;23.20;14.68;;;;;;;-143.48;64.36;118439.88;5036163;28;20025;-67
2023/05/15 07:49:27;;;;;;;24.05;15.85;;;;;;;-143.48;63.68;118439.88;5036582;28;20036;-68
2023/05/15 07:51:53;;;;;;;21.70;16.63;;;;;;;-143.48;67.21;118439.88;5024665;28;20026;-68
2023/05/15 07:54:18;;;;;;;21.58;15.63;;;;;;;-143.48;66.12;118439.88;5020420;28;20033;-72
2023/05/15 07:56:43;;;;;;;21.17;14.98;;;;;;;-143.48;63.36;118439.88;5028565;28;20037;-72
2023/05/15 07:59:09;;;;;;;21.52;14.68;;;;;;;-143.48;64.94;118439.88;5035404;28;20101;-72
2023/05/15 08:01:34;;;;;;;21.98;14.82;;;;;;;-143.48;64.60;118439.88;5023403;28;20033;-73
2023/05/15 08:03:59;;;;;;;29.05;14.40;;;;;;;-143.48;64.46;118439.88;5025375;28;20025;-73
2023/05/15 08:06:25;;;;;;;22.70;14.55;;;;;;;-143.48;64.89;118439.88;5041856;28;20025;-72
2023/05/15 08:08:50;;;;;;;21.27;15.18;;;;;;;-143.48;66.24;118439.88;5041641;28;20476;-72
2023/05/15 08:11:16;;;;;;;22.27;15.85;;;;;;;-143.48;67.45;118439.88;5046626;28;20041;-73
2023/05/15 08:13:42;;;;;;;22.73;15.65;;;;;;;-143.48;66.91;118439.88;5046338;28;20033;-71
2023/05/15 08:16:07;;;;;;;27.85;15.20;;;;;;;-143.48;65.17;118439.88;5028037;28;20046;-72
2023/05/15 08:18:32;;;;;;;20.23;15.52;;;;;;;-143.48;65.78;118439.88;5028716;28;20029;-71
2023/05/15 08:20:58;;;;;;;21.98;14.93;;;;;;;-143.48;65.86;118439.88;5028804;28;20028;-72
2023/05/15 08:23:23;;;;;;;21.40;14.82;;;;;;;-143.48;66.69;118439.88;5046364;28;20021;-71
2023/05/15 08:25:48;;;;;;;20.75;15.25;;;;;;;-143.48;65.26;118439.88;5047279;28;20026;-72
2023/05/15 08:28:14;;;;;;;25.33;15.45;;;;;;;-143.48;65.82;118439.88;5046329;28;20045;-72
2023/05/15 08:30:39;;;;;;;30.00;15.88;;;;;;;-143.48;65.78;118439.88;5028316;28;20025;-72
2023/05/15 08:33:05;;;;;;;21.55;16.15;;;;;;;-143.48;64.44;118439.88;5046748;28;20467;-71
2023/05/15 08:35:30;;;;;;;23.85;16.27;;;;;;;-143.48;65.66;118439.88;5047173;28;20025;-73
2023/05/15 08:37:57;;;;;;;30.13;15.45;;;;;;;-143.48;66.44;118439.88;5049807;28;20025;-71
2023/05/15 08:40:22;;;;;;;21.92;14.68;;;;;;;-143.48;67.30;118439.88;5048969;28;20022;-72
2023/05/15 08:42:52;;;;;;;23.90;16.02;;;;;;;-143.48;66.53;118439.88;5048994;28;20412;-71
2023/05/15 08:45:18;;;;;;;24.40;16.63;;;;;;;-143.48;67.08;118439.88;5031783;28;20021;-71
2023/05/15 08:47:44;;;;;;;24.55;17.40;;;;;;;-143.48;68.41;118439.88;5048570;28;20051;-74
2023/05/15 08:50:14;;;;;;;25.08;17.92;;;;;;;-143.48;69.24;118439.88;5049203;28;20051;-71
2023/05/15 08:52:45;;;;;;;23.52;15.98;;;;;;;-143.48;69.59;118439.88;5049505;28;20036;-72
2023/05/15 08:55:12;;;;;;;27.30;16.70;;;;;;;-143.48;70.51;118439.88;5049911;28;20100;-72
2023/05/15 08:57:38;;;;;;;22.80;17.20;;;;;;;-143.48;69.80;118439.88;5050514;28;20026;-72
2023/05/15 09:00:07;;;;;;;26.85;18.75;;;;;;;-143.48;69.96;118439.88;5031783;28;20018;-72
2023/05/15 09:02:38;;;;;;;32.15;23.02;;;;;;;-143.48;72.86;118439.88;5032139;28;20037;-73
2023/05/15 09:05:08;;;;;;;33.03;21.70;;;;;;;-143.48;72.16;118439.88;5049566;28;20013;-72
2023/05/15 09:07:34;;;;;;;32.78;22.13;;;;;;;-143.48;73.62;118439.88;5049590;28;20026;-72
2023/05/15 09:10:02;;;;;;;34.28;23.30;;;;;;;-143.48;73.66;118439.88;5049715;28;20049;-72
2023/05/15 09:12:31;;;;;;;39.20;25.48;;;;;;;-143.48;74.17;118439.88;5031705;28;20033;-73
2023/05/15 09:15:13;;;;;;;39.78;24.60;;;;;;;-143.48;75.04;118439.88;5042699;28;20454;-72
2023/05/15 09:17:39;;;;;;;39.50;25.77;;;;;;;-143.48;76.65;118439.88;5020322;28;20111;-72
2023/05/15 09:20:05;;;;;;;44.95;26.67;;;;;;;-143.48;77.38;118439.88;5019956;28;20496;-74
2023/05/15 09:22:33;;;;;;;44.65;26.63;;;;;;;-143.48;76.72;118439.88;5021574;28;20029;-73
2023/05/15 09:25:01;;;;;;;44.25;27.98;;;;;;;-143.48;76.01;118439.88;5021273;28;20021;-73
2023/05/15 09:27:27;;;;;;;44.35;27.85;;;;;;;-143.48;75.95;118439.88;5037246;28;20018;-73
2023/05/15 09:29:55;;;;;;;49.47;29.30;;;;;;;-143.48;76.75;118439.88;5021754;28;20021;-72
2023/05/15 09:32:20;;;;;;;48.67;28.70;;;;;;;-143.48;75.94;118439.88;5040262;28;20144;-74
2023/05/15 09:34:46;;;;;;;52.15;29.08;;;;;;;-143.48;76.32;118439.88;5027847;28;20025;-74
2023/05/15 09:37:27;;;;;;;50.28;28.58;;;;;;;-143.48;76.51;118439.88;5055074;28;20017;-71
2023/05/15 09:39:52;;;;;;;48.03;28.13;;;;;;;-143.48;77.49;118439.88;5028404;28;20116;-72
2023/05/15 09:42:17;;;;;;;52.13;29.50;;;;;;;-143.48;76.89;118439.88;5041997;28;20127;-72
2023/05/15 09:44:44;;;;;;;49.92;29.25;;;;;;;-143.48;76.83;118439.88;5038295;28;20041;-73
2023/05/15 09:47:11;;;;;;;50.70;28.48;;;;;;;-143.48;76.57;118439.88;5039164;28;20021;-72
2023/05/15 09:49:37;;;;;;;48.22;28.23;;;;;;;-143.48;75.79;118439.88;5036583;28;20056;-73
2023/05/15 09:52:06;;;;;;;52.08;28.40;;;;;;;-143.48;75.90;118439.88;5037074;28;20069;-73
2023/05/15 09:54:31;;;;;;;50.15;28.40;;;;;;;-143.48;76.72;118439.88;5018785;28;20357;-72
2023/05/15 09:57:06;;;;;;;49.85;28.05;;;;;;;-143.48;77.15;118439.88;5019765;28;20112;-72
2023/05/15 09:59:31;;;;;;;50.58;28.77;;;;;;;-143.48;77.01;118439.88;5018435;28;20361;-72
2023/05/15 10:01:57;;;;;;;55.72;29.02;;;;;;;-143.48;78.17;118439.88;5035374;28;20032;-72
2023/05/15 10:04:22;;;;;;;55.15;28.70;;;;;;;-143.48;79.08;118439.88;5035254;28;20029;-72
2023/05/15 10:06:47;;;;;;;51.28;29.75;;;;;;;-143.48;80.17;118439.88;5035561;28;20525;-73
2023/05/15 10:09:13;;;;;;;60.20;30.88;;;;;;;-143.48;80.82;118439.88;5034168;28;20045;-72
2023/05/15 10:11:42;;;;;;;51.75;28.92;;;;;;;-143.48;80.53;118439.88;5015903;28;20025;-72
2023/05/15 10:14:12;;;;;;;50.70;27.48;;;;;;;-143.48;81.56;118439.88;5018829;28;20021;-72
2023/05/15 10:16:38;;;;;;;49.38;27.13;;;;;;;-143.48;79.27;118439.88;5018386;28;20135;-72
2023/05/15 10:19:06;;;;;;;49.65;27.23;;;;;;;-143.48;80.00;118439.88;5034908;28;20194;-72
2023/05/15 10:21:34;;;;;;;42.47;25.00;;;;;;;-143.48;81.08;118439.88;5034870;28;20021;-73
2023/05/15 10:24:00;;;;;;;41.97;23.85;;;;;;;-143.48;81.58;118439.88;5034938;28;20021;-72
2023/05/15 10:26:37;;;;;;;36.17;21.27;;;;;;;-143.48;80.45;118439.88;5035171;28;20037;-73
2023/05/15 10:29:05;;;;;;;33.05;20.48;;;;;;;-143.48;79.76;118439.88;5017327;28;20098;-73
2023/05/15 10:31:30;;;;;;;31.83;20.15;;;;;;;-143.48;78.96;118439.88;5017464;28;20026;-73
2023/05/15 10:33:56;;;;;;;35.35;19.55;;;;;;;-143.48;80.01;118439.88;5035459;28;20108;-73
2023/05/15 10:36:23;;;;;;;33.72;20.25;;;;;;;-143.48;80.76;118439.88;5035205;28;20030;-73
2023/05/15 10:38:49;;;;;;;35.70;19.90;;;;;;;-143.48;79.12;118439.88;5034956;28;20017;-72
2023/05/15 10:41:16;;;;;;;29.23;18.50;;;;;;;-143.48;78.56;118439.88;5040404;28;20021;-73
2023/05/15 10:43:43;;;;;;;31.50;19.17;;;;;;;-143.48;78.61;118439.88;5035633;28;20033;-72
2023/05/15 10:46:09;;;;;;;32.00;19.52;;;;;;;-143.48;77.46;118439.88;5017304;28;20028;-72
2023/05/15 10:48:35;;;;;;;30.33;18.70;;;;;;;-143.48;78.20;118439.88;5016723;28;20071;-73
2023/05/15 10:51:01;;;;;;;33.25;19.35;;;;;;;-143.48;78.45;118439.88;5017473;28;20053;-73
2023/05/15 10:53:26;;;;;;;32.47;18.73;;;;;;;-143.48;77.06;118439.88;5016857;28;20029;-73